createdAt,value
2019-03-08T12:51:33.413Z,10.10
2019-03-08T12:54:09.613Z,11.20
2019-03-08T12:56:57.520Z,12.10
2019-03-08T12:59:33.646Z,12.70
2019-03-08T13:02:13.210Z,13.40
2019-03-08T13:05:01.535Z,13.90
2019-03-08T13:07:42.545Z,13.30
2019-03-08T13:10:16.640Z,12.80
2019-03-08T13:12:46.329Z,13.00
2019-03-08T13:15:16.208Z,13.00
2019-03-08T13:17:49.660Z,13.20
2019-03-08T13:20:18.877Z,13.10
2019-03-08T13:22:50.652Z,12.20
2019-03-08T13:25:19.629Z,11.70
2019-03-08T13:27:48.358Z,11.30
2019-03-08T13:30:22.261Z,11.50
2019-03-08T13:32:52.540Z,12.40
2019-03-08T13:35:25.270Z,13.20
2019-03-08T13:37:57.697Z,13.60
2019-03-08T13:40:35.091Z,13.50
2019-03-08T13:43:05.622Z,13.10
2019-03-08T13:45:34.364Z,12.80
2019-03-08T13:48:05.648Z,12.80
2019-03-08T13:50:37.728Z,12.50
2019-03-08T13:53:06.474Z,12.00
2019-03-08T13:55:36.866Z,11.90
2019-03-08T13:58:05.574Z,12.00
2019-03-08T14:00:34.298Z,12.00
2019-03-08T14:03:04.835Z,12.10
2019-03-08T14:05:33.812Z,12.00
2019-03-08T14:08:03.721Z,12.10
2019-03-08T14:10:32.604Z,11.90
2019-03-08T14:13:03.059Z,11.30
2019-03-08T14:15:31.779Z,10.80
2019-03-08T14:18:03.582Z,10.30
2019-03-08T14:20:33.757Z,10.10
2019-03-08T14:23:05.494Z,10.00
2019-03-08T14:25:34.235Z,9.80
2019-03-08T14:28:07.848Z,9.70
2019-03-08T14:30:39.635Z,9.80
2019-03-08T14:33:08.417Z,9.60
2019-03-08T14:35:37.040Z,9.20
2019-03-08T14:38:11.801Z,9.00
2019-03-08T14:40:45.381Z,8.90
2019-03-08T14:43:32.503Z,8.70
2019-03-08T14:46:02.799Z,8.70
2019-03-08T14:48:33.395Z,8.80
2019-03-08T14:51:03.987Z,8.60
2019-03-08T14:53:34.300Z,8.40
2019-03-08T14:56:03.223Z,8.50
2019-03-08T14:58:36.775Z,8.40
2019-03-08T15:01:06.179Z,8.60
2019-03-08T15:03:43.221Z,8.70
2019-03-08T15:06:12.593Z,8.70
2019-03-08T15:08:43.097Z,8.60
2019-03-08T15:11:14.717Z,8.80
2019-03-08T15:13:43.555Z,8.80
2019-03-08T15:16:12.247Z,8.80
2019-03-08T15:18:43.648Z,8.90
2019-03-08T15:21:12.611Z,8.90
2019-03-08T15:23:41.315Z,8.80
2019-03-08T15:26:12.109Z,8.70
2019-03-08T15:28:40.786Z,8.60
2019-03-08T15:31:12.493Z,8.60
2019-03-08T15:33:44.221Z,8.50
2019-03-08T15:36:13.109Z,8.40
2019-03-08T15:38:57.920Z,8.30
2019-03-08T15:41:21.460Z,8.20
2019-03-08T15:43:51.164Z,8.10
2019-03-08T15:46:22.417Z,8.00
2019-03-08T15:48:54.850Z,7.80
2019-03-08T15:51:25.691Z,7.80
2019-03-08T15:53:55.789Z,7.70
2019-03-08T15:56:25.059Z,7.60
2019-03-08T15:58:53.803Z,7.60
2019-03-08T16:01:29.493Z,7.60
2019-03-08T16:03:58.300Z,7.50
2019-03-08T16:06:30.079Z,7.50
2019-03-08T16:09:00.265Z,7.50
2019-03-08T16:11:29.025Z,7.50
2019-03-08T16:13:57.709Z,7.50
2019-03-08T16:16:26.427Z,7.50
2019-03-08T16:19:01.373Z,7.50
2019-03-08T16:21:38.733Z,7.40
2019-03-08T16:24:11.162Z,7.40
2019-03-08T16:26:39.993Z,7.40
2019-03-08T16:29:11.796Z,7.40
2019-03-08T16:32:00.005Z,7.40
2019-03-08T16:34:38.181Z,7.40
2019-03-08T16:37:17.345Z,7.40
2019-03-08T16:39:53.804Z,7.30
2019-03-08T16:42:35.714Z,7.30
2019-03-08T16:45:11.941Z,7.20
2019-03-08T16:47:51.621Z,7.20
2019-03-08T16:50:26.929Z,7.20
2019-03-08T16:52:58.906Z,7.20
2019-03-08T16:55:46.077Z,7.10
2019-03-08T16:58:19.975Z,7.10
2019-03-08T17:00:55.352Z,7.10
2019-03-08T17:03:28.469Z,7.10
2019-03-08T17:06:26.540Z,7.10
2019-03-08T17:09:10.695Z,7.00
2019-03-08T17:11:54.295Z,6.90
2019-03-08T17:14:28.070Z,6.80
2019-03-08T17:17:14.781Z,6.70
2019-03-08T17:19:54.293Z,6.50
2019-03-08T17:22:30.933Z,6.40
2019-03-08T17:25:04.081Z,6.40
2019-03-08T17:27:55.132Z,6.40
2019-03-08T17:30:34.425Z,6.30
2019-03-08T17:33:06.671Z,6.30
2019-03-08T17:35:53.525Z,6.30
2019-03-08T17:38:30.019Z,6.20
2019-03-08T17:41:04.910Z,6.10
2019-03-08T17:43:47.893Z,6.10
2019-03-08T17:46:27.138Z,5.90
2019-03-08T17:49:02.184Z,5.70
2019-03-08T17:51:48.621Z,5.60
2019-03-08T17:54:21.696Z,5.60
2019-03-08T17:56:54.780Z,5.60
2019-03-08T17:59:28.083Z,5.60
2019-03-08T18:02:01.666Z,5.60
2019-03-08T18:04:37.722Z,5.50
2019-03-08T18:07:09.035Z,5.50
2019-03-08T18:09:49.548Z,5.40
2019-03-08T18:12:24.436Z,5.50
2019-03-08T18:14:56.085Z,5.50
2019-03-08T18:17:41.276Z,5.50
2019-03-08T18:20:23.171Z,5.60
2019-03-08T18:22:53.529Z,5.60
2019-03-08T18:25:24.032Z,5.60
2019-03-08T18:27:55.095Z,5.50
2019-03-08T18:30:32.853Z,5.50
2019-03-08T18:33:07.720Z,5.60
2019-03-08T18:35:41.359Z,5.60
2019-03-08T18:38:14.555Z,5.70
2019-03-08T18:40:47.691Z,5.70
2019-03-08T18:43:24.324Z,5.70
2019-03-08T18:45:57.744Z,5.80
2019-03-08T18:48:39.757Z,5.70
2019-03-08T18:51:19.318Z,5.70
2019-03-08T18:54:04.428Z,5.80
2019-03-08T18:56:37.548Z,5.80
2019-03-08T18:59:11.378Z,5.70
2019-03-08T19:01:44.206Z,5.70
2019-03-08T19:04:30.183Z,5.60
2019-03-08T19:07:15.858Z,5.70
2019-03-08T19:09:55.177Z,5.70
2019-03-08T19:12:28.294Z,5.70
2019-03-08T19:15:16.957Z,5.70
2019-03-08T19:18:04.125Z,5.70
2019-03-08T19:20:58.086Z,5.70
2019-03-08T19:23:26.691Z,5.80
2019-03-08T19:26:07.224Z,5.80
2019-03-08T19:28:39.307Z,5.90
2019-03-08T19:31:24.192Z,5.90
2019-03-08T19:34:13.358Z,6.00
2019-03-08T19:37:01.125Z,6.00
2019-03-08T19:39:48.141Z,6.00
2019-03-08T19:42:18.746Z,6.00
2019-03-08T19:45:08.171Z,6.00
2019-03-08T19:47:38.485Z,6.10
2019-03-08T19:50:16.618Z,6.10
2019-03-08T19:53:03.591Z,6.20
2019-03-08T19:55:33.965Z,6.20
2019-03-08T19:58:19.808Z,6.20
2019-03-08T20:00:56.180Z,6.30
2019-03-08T20:03:28.295Z,6.30
2019-03-08T20:06:02.168Z,6.30
2019-03-08T20:08:50.967Z,6.30
2019-03-08T20:11:21.348Z,6.30
2019-03-08T20:13:54.503Z,6.30
2019-03-08T20:16:44.753Z,6.30
2019-03-08T20:19:15.430Z,6.40
2019-03-08T20:21:50.124Z,6.30
2019-03-08T20:24:23.722Z,6.40
2019-03-08T20:27:11.807Z,6.30
2019-03-08T20:29:48.104Z,6.30
2019-03-08T20:32:28.648Z,6.30
2019-03-08T20:35:23.682Z,6.30
2019-03-08T20:37:57.097Z,6.40
2019-03-08T20:40:43.812Z,6.40
2019-03-08T20:43:17.173Z,6.40
2019-03-08T20:45:56.281Z,6.40
2019-03-08T20:48:25.028Z,6.30
2019-03-08T20:50:53.939Z,6.30
2019-03-08T20:53:23.238Z,6.40
2019-03-08T20:55:55.964Z,6.40
2019-03-08T20:58:27.800Z,6.40
2019-03-08T21:00:59.479Z,6.40
2019-03-08T21:03:30.578Z,6.40
2019-03-08T21:06:00.703Z,6.40
2019-03-08T21:08:29.651Z,6.30
2019-03-08T21:10:58.378Z,6.20
2019-03-08T21:13:31.619Z,6.10
2019-03-08T21:16:06.253Z,6.10
2019-03-08T21:18:37.631Z,6.00
2019-03-08T21:21:16.175Z,6.00
2019-03-08T21:23:46.374Z,5.90
2019-03-08T21:26:15.288Z,5.90
2019-03-08T21:28:45.722Z,5.90
2019-03-08T21:31:15.677Z,5.80
2019-03-08T21:33:45.890Z,5.70
2019-03-08T21:36:14.818Z,5.60
2019-03-08T21:38:46.352Z,5.60
2019-03-08T21:41:16.526Z,5.70
2019-03-08T21:43:45.173Z,5.60
2019-03-08T21:46:15.680Z,5.60
2019-03-08T21:48:44.343Z,5.60
2019-03-08T21:51:12.982Z,5.50
2019-03-08T21:53:44.828Z,5.60
2019-03-08T21:56:18.886Z,5.50
2019-03-08T21:58:47.617Z,5.60
2019-03-08T22:01:18.875Z,5.50
2019-03-08T22:03:49.903Z,5.60
2019-03-08T22:06:20.200Z,5.60
2019-03-08T22:08:55.633Z,5.70
2019-03-08T22:11:31.277Z,5.60
2019-03-08T22:14:00.319Z,5.60
2019-03-08T22:16:32.772Z,5.50
2019-03-08T22:19:01.620Z,5.60
2019-03-08T22:21:32.826Z,5.60
2019-03-08T22:24:01.474Z,5.70
2019-03-08T22:26:33.411Z,5.80
2019-03-08T22:29:02.031Z,5.80
2019-03-08T22:31:30.742Z,5.80
2019-03-08T22:33:59.423Z,5.80
2019-03-08T22:36:31.387Z,5.80
2019-03-08T22:39:01.719Z,5.70
2019-03-08T22:41:31.223Z,5.70
2019-03-08T22:44:00.258Z,5.70
2019-03-08T22:46:29.382Z,5.60
2019-03-08T22:48:59.699Z,5.60
2019-03-08T22:51:29.040Z,5.50
2019-03-08T22:53:57.800Z,5.60
2019-03-08T22:56:26.657Z,5.60
2019-03-08T22:58:55.293Z,5.60
2019-03-08T23:01:27.009Z,5.60
2019-03-08T23:03:56.812Z,5.60
2019-03-08T23:06:30.163Z,5.60
2019-03-08T23:08:58.745Z,5.60
2019-03-08T23:11:27.789Z,5.60
2019-03-08T23:14:01.383Z,5.60
2019-03-08T23:16:30.233Z,5.60
2019-03-08T23:18:59.093Z,5.50
2019-03-08T23:21:27.707Z,5.60
2019-03-08T23:23:56.471Z,5.50
2019-03-08T23:26:26.098Z,5.50
2019-03-08T23:28:56.746Z,5.50
2019-03-08T23:31:27.201Z,5.40
2019-03-08T23:33:56.250Z,5.40
2019-03-08T23:36:27.649Z,5.40
2019-03-08T23:38:58.392Z,5.30
2019-03-08T23:41:28.917Z,5.40
2019-03-08T23:43:59.614Z,5.40
2019-03-08T23:46:28.301Z,5.30
2019-03-08T23:48:58.225Z,5.30
2019-03-08T23:51:30.096Z,5.30
2019-03-08T23:53:58.997Z,5.30
2019-03-08T23:56:30.589Z,5.30
2019-03-08T23:58:59.343Z,5.30
